createdAt,value
2023-01-20T00:01:39.683Z,100401.19
2023-01-20T00:04:06.571Z,100392.69
2023-01-20T00:06:33.082Z,100408.94
2023-01-20T00:09:00.598Z,100403.91
2023-01-20T00:11:27.959Z,100406.56
2023-01-20T00:13:59.693Z,100414.09
2023-01-20T00:16:27.085Z,100411.84
2023-01-20T00:18:54.044Z,100416.16
2023-01-20T00:21:28.849Z,100417.31
2023-01-20T00:23:55.317Z,100414.75
2023-01-20T00:26:24.001Z,100413.84
2023-01-20T00:28:53.475Z,100421.00
2023-01-20T00:31:23.914Z,100418.88
2023-01-20T00:33:51.709Z,100431.66
2023-01-20T00:36:19.558Z,100430.72
2023-01-20T00:38:46.043Z,100436.63
2023-01-20T00:41:13.144Z,100439.88
2023-01-20T00:43:39.728Z,100445.47
2023-01-20T00:46:07.011Z,100452.41
2023-01-20T00:48:34.450Z,100444.94
2023-01-20T00:51:01.454Z,100447.47
2023-01-20T00:53:27.988Z,100446.66
2023-01-20T00:55:54.483Z,100459.94
2023-01-20T00:58:21.091Z,100459.56
2023-01-20T01:00:48.852Z,100464.13
2023-01-20T01:03:15.797Z,100458.31
2023-01-20T01:05:42.631Z,100476.28
2023-01-20T01:08:10.075Z,100476.16
2023-01-20T01:10:36.513Z,100468.31
2023-01-20T01:13:04.228Z,100473.69
2023-01-20T01:15:30.968Z,100487.59
2023-01-20T01:17:58.735Z,100491.78
2023-01-20T01:20:25.590Z,100482.41
2023-01-20T01:22:52.101Z,100481.78
2023-01-20T01:25:19.106Z,100491.56
2023-01-20T01:27:45.639Z,100488.25
2023-01-20T01:30:12.856Z,100500.69
2023-01-20T01:32:39.355Z,100498.19
2023-01-20T01:35:06.843Z,100509.66
2023-01-20T01:37:33.337Z,100506.34
2023-01-20T01:39:59.796Z,100512.28
2023-01-20T01:42:26.945Z,100507.59
2023-01-20T01:45:12.185Z,100520.13
2023-01-20T01:47:41.071Z,100521.66
2023-01-20T01:50:09.819Z,100529.75
2023-01-20T01:52:36.323Z,100536.28
2023-01-20T01:55:03.133Z,100527.47
2023-01-20T01:57:31.621Z,100531.00
2023-01-20T01:59:58.086Z,100538.34
2023-01-20T02:02:24.675Z,100538.06
2023-01-20T02:04:51.157Z,100539.25
2023-01-20T02:07:19.770Z,100542.59
2023-01-20T02:09:46.624Z,100540.97
2023-01-20T02:12:15.788Z,100551.94
2023-01-20T02:14:47.081Z,100555.06
2023-01-20T02:17:36.283Z,100558.09
2023-01-20T02:20:23.945Z,100556.66
2023-01-20T02:22:56.566Z,100564.03
2023-01-20T02:25:43.066Z,100566.41
2023-01-20T02:28:15.623Z,100571.06
2023-01-20T02:31:16.719Z,100576.97
2023-01-20T02:34:01.670Z,100581.06
2023-01-20T02:36:43.949Z,100586.19
2023-01-20T02:39:26.920Z,100584.19
2023-01-20T02:42:15.988Z,100581.28
2023-01-20T02:45:06.447Z,100596.31
2023-01-20T02:47:52.027Z,100590.28
2023-01-20T02:50:42.644Z,100595.88
2023-01-20T02:53:11.225Z,100601.19
2023-01-20T02:55:47.498Z,100601.69
2023-01-20T02:58:24.012Z,100607.25
2023-01-20T03:00:56.466Z,100605.53
2023-01-20T03:03:26.682Z,100608.03
2023-01-20T03:05:56.387Z,100603.31
2023-01-20T03:08:24.534Z,100615.41
2023-01-20T03:10:52.715Z,100616.66
2023-01-20T03:13:34.544Z,100619.44
2023-01-20T03:16:11.122Z,100622.63
2023-01-20T03:18:38.229Z,100623.28
2023-01-20T03:21:07.001Z,100628.09
2023-01-20T03:23:41.023Z,100628.19
2023-01-20T03:26:10.742Z,100631.75
2023-01-20T03:28:37.479Z,100636.50
2023-01-20T03:31:25.630Z,100637.38
2023-01-20T03:33:54.117Z,100649.00
2023-01-20T03:36:22.526Z,100645.03
2023-01-20T03:38:49.554Z,100645.91
2023-01-20T03:41:57.889Z,100659.50
2023-01-20T03:44:26.940Z,100649.38
2023-01-20T03:47:00.348Z,100657.19
2023-01-20T03:49:36.560Z,100656.91
2023-01-20T03:52:46.656Z,100662.25
2023-01-20T03:55:52.374Z,100657.19
2023-01-20T03:58:22.618Z,100665.06
2023-01-20T04:00:50.197Z,100667.63
2023-01-20T04:03:20.310Z,100664.63
2023-01-20T04:05:47.274Z,100662.75
2023-01-20T04:08:16.356Z,100661.31
2023-01-20T04:10:45.539Z,100671.41
2023-01-20T04:13:12.007Z,100671.78
2023-01-20T04:15:44.521Z,100669.84
2023-01-20T04:18:12.507Z,100683.84
2023-01-20T04:20:39.003Z,100676.53
2023-01-20T04:23:06.765Z,100686.22
2023-01-20T04:25:33.520Z,100688.09
2023-01-20T04:28:00.012Z,100689.34
2023-01-20T04:30:26.571Z,100689.88
2023-01-20T04:32:53.098Z,100694.28
2023-01-20T04:35:20.028Z,100704.38
2023-01-20T04:37:46.528Z,100707.94
2023-01-20T04:40:13.190Z,100710.34
2023-01-20T04:42:39.741Z,100714.38
2023-01-20T04:45:06.573Z,100715.06
2023-01-20T04:47:33.805Z,100713.25
2023-01-20T04:50:00.407Z,100718.97
2023-01-20T04:52:26.896Z,100722.91
2023-01-20T04:54:53.390Z,100718.66
2023-01-20T04:57:19.862Z,100730.97
2023-01-20T04:59:46.455Z,100732.53
2023-01-20T05:02:12.983Z,100729.31
2023-01-20T05:04:56.869Z,100730.34
2023-01-20T05:07:23.388Z,100741.25
2023-01-20T05:09:49.869Z,100745.53
2023-01-20T05:12:16.335Z,100747.72
2023-01-20T05:14:42.805Z,100756.59
2023-01-20T05:17:09.240Z,100754.38
2023-01-20T05:19:35.717Z,100764.13
2023-01-20T05:22:02.162Z,100764.66
2023-01-20T05:24:28.663Z,100770.13
2023-01-20T05:26:55.199Z,100770.59
2023-01-20T05:29:21.634Z,100773.63
2023-01-20T05:31:48.155Z,100778.78
2023-01-20T05:34:16.449Z,100783.06
2023-01-20T05:36:42.905Z,100788.44
2023-01-20T05:39:09.374Z,100795.59
2023-01-20T05:41:35.849Z,100790.69
2023-01-20T05:44:02.351Z,100799.19
2023-01-20T05:46:28.980Z,100798.03
2023-01-20T05:48:55.473Z,100805.72
2023-01-20T05:51:21.989Z,100808.78
2023-01-20T05:53:48.437Z,100801.97
2023-01-20T05:56:16.186Z,100812.78
2023-01-20T05:58:43.016Z,100817.41
2023-01-20T06:01:11.724Z,100827.03
2023-01-20T06:03:38.651Z,100824.78
2023-01-20T06:06:07.629Z,100834.53
2023-01-20T06:08:34.916Z,100826.06
2023-01-20T06:11:02.460Z,100829.22
2023-01-20T06:13:28.913Z,100835.56
2023-01-20T06:15:55.922Z,100836.00
2023-01-20T06:18:23.256Z,100843.03
2023-01-20T06:20:49.874Z,100838.50
2023-01-20T06:23:16.537Z,100849.06
2023-01-20T06:25:43.995Z,100850.50
2023-01-20T06:28:10.496Z,100852.47
2023-01-20T06:30:38.152Z,100860.03
2023-01-20T06:33:10.466Z,100855.22
2023-01-20T06:35:37.712Z,100869.06
2023-01-20T06:38:04.379Z,100869.81
2023-01-20T06:40:31.258Z,100879.88
2023-01-20T06:42:58.459Z,100884.66
2023-01-20T06:45:25.006Z,100883.13
2023-01-20T06:47:51.443Z,100881.72
2023-01-20T06:50:17.910Z,100894.84
2023-01-20T06:52:44.394Z,100890.03
2023-01-20T06:55:10.852Z,100897.88
2023-01-20T06:57:37.300Z,100906.03
2023-01-20T07:00:04.331Z,100915.72
2023-01-20T07:02:30.868Z,100913.03
2023-01-20T07:04:57.306Z,100927.28
2023-01-20T07:07:23.796Z,100922.47
2023-01-20T07:09:51.937Z,100930.97
2023-01-20T07:12:18.405Z,100942.00
2023-01-20T07:14:45.575Z,100936.13
2023-01-20T07:17:13.310Z,100940.69
2023-01-20T07:19:39.785Z,100949.59
2023-01-20T07:22:06.236Z,100948.38
2023-01-20T07:24:32.675Z,100956.28
2023-01-20T07:26:59.223Z,100954.41
2023-01-20T07:29:26.748Z,100956.97
2023-01-20T07:31:53.315Z,100965.53
2023-01-20T07:34:19.920Z,100965.44
2023-01-20T07:36:46.381Z,100970.25
2023-01-20T07:39:13.141Z,100976.41
2023-01-20T07:41:39.687Z,100983.63
2023-01-20T07:44:06.136Z,100988.16
2023-01-20T07:46:32.700Z,100989.47
2023-01-20T07:48:59.198Z,101003.16
2023-01-20T07:51:25.656Z,101008.94
2023-01-20T07:53:52.189Z,101021.31
2023-01-20T07:56:21.752Z,101020.75
2023-01-20T07:58:50.512Z,101023.78
2023-01-20T08:01:27.510Z,101040.91
2023-01-20T08:03:54.186Z,101043.34
2023-01-20T08:06:23.012Z,101054.34
2023-01-20T08:08:49.602Z,101060.47
2023-01-20T08:11:17.280Z,101059.75
2023-01-20T08:13:43.811Z,101071.78
2023-01-20T08:16:25.710Z,101084.72
2023-01-20T08:18:54.715Z,101084.69
2023-01-20T08:21:23.864Z,101089.78
2023-01-20T08:23:50.650Z,101096.66
2023-01-20T08:26:17.282Z,101102.13
2023-01-20T08:28:43.887Z,101105.88
2023-01-20T08:31:11.393Z,101125.88
2023-01-20T08:33:38.825Z,101124.38
2023-01-20T08:36:10.026Z,101131.09
2023-01-20T08:38:37.043Z,101133.03
2023-01-20T08:41:08.543Z,101139.94
2023-01-20T08:43:35.077Z,101154.59
2023-01-20T08:46:03.346Z,101153.00
2023-01-20T08:48:29.880Z,101153.28
2023-01-20T08:50:56.625Z,101159.91
2023-01-20T08:53:23.090Z,101170.25
2023-01-20T08:55:59.195Z,101176.44
2023-01-20T08:58:27.515Z,101180.44
2023-01-20T09:00:54.617Z,101189.88
2023-01-20T09:03:22.302Z,101182.53
2023-01-20T09:05:49.183Z,101193.00
2023-01-20T09:08:17.193Z,101194.66
2023-01-20T09:10:44.462Z,101194.22
2023-01-20T09:13:11.293Z,101201.28
2023-01-20T09:15:37.748Z,101202.25
2023-01-20T09:18:04.290Z,101205.06
2023-01-20T09:20:30.736Z,101207.31
2023-01-20T09:23:02.784Z,101212.22
2023-01-20T09:25:29.253Z,101212.28
2023-01-20T09:28:07.042Z,101202.00
2023-01-20T09:30:33.487Z,101206.09
2023-01-20T09:33:00.174Z,101214.69
2023-01-20T09:35:26.806Z,101223.06
2023-01-20T09:38:11.999Z,101222.34
2023-01-20T09:41:10.758Z,101221.94
2023-01-20T09:43:55.556Z,101224.19
2023-01-20T09:46:33.778Z,101227.56
2023-01-20T09:49:42.017Z,101225.81
2023-01-20T09:52:33.229Z,101224.63
2023-01-20T09:55:04.561Z,101231.97
2023-01-20T09:57:34.606Z,101233.41
2023-01-20T10:00:06.601Z,101236.09
2023-01-20T10:02:36.187Z,101236.75
2023-01-20T10:05:12.516Z,101242.38
2023-01-20T10:08:17.638Z,101244.44
2023-01-20T10:11:12.491Z,101246.88
2023-01-20T10:13:47.379Z,101247.69
2023-01-20T10:16:23.473Z,101245.09
2023-01-20T10:18:56.619Z,101240.59
2023-01-20T10:21:31.232Z,101238.13
2023-01-20T10:24:00.958Z,101242.56
2023-01-20T10:26:38.760Z,101252.59
2023-01-20T10:29:07.795Z,101250.13
2023-01-20T10:31:38.095Z,101240.53
2023-01-20T10:34:19.035Z,101249.31
2023-01-20T10:36:50.543Z,101253.44
2023-01-20T10:40:08.648Z,101250.88
2023-01-20T10:42:35.127Z,101254.75
2023-01-20T10:45:01.689Z,101245.19
2023-01-20T10:47:44.247Z,101260.72
2023-01-20T10:50:19.828Z,101256.03
2023-01-20T10:53:15.781Z,101272.06
2023-01-20T10:56:03.385Z,101276.00
2023-01-20T10:58:38.194Z,101272.16
2023-01-20T11:01:09.290Z,101285.41
2023-01-20T11:03:39.687Z,101280.97
2023-01-20T11:06:06.580Z,101292.06
2023-01-20T11:08:33.164Z,101292.38
2023-01-20T11:11:01.951Z,101295.00
2023-01-20T11:13:28.431Z,101302.53
2023-01-20T11:15:57.614Z,101305.69
2023-01-20T11:18:30.072Z,101309.50
2023-01-20T11:20:56.600Z,101319.28
2023-01-20T11:23:36.587Z,101311.19
2023-01-20T11:26:28.402Z,101310.53
2023-01-20T11:28:57.983Z,101329.44
2023-01-20T11:31:43.224Z,101322.94
2023-01-20T11:34:28.157Z,101325.94
2023-01-20T11:37:06.947Z,101331.13
2023-01-20T11:39:35.645Z,101331.31
2023-01-20T11:42:15.429Z,101337.88
2023-01-20T11:44:54.495Z,101342.00
2023-01-20T11:47:24.916Z,101338.47
2023-01-20T11:50:09.944Z,101344.09
2023-01-20T11:52:47.299Z,101348.03
2023-01-20T11:55:19.846Z,101346.19
2023-01-20T11:57:53.790Z,101344.97
2023-01-20T12:00:20.225Z,101354.13
2023-01-20T12:03:09.971Z,101355.38
2023-01-20T12:05:41.924Z,101358.13
2023-01-20T12:08:17.463Z,101360.16
2023-01-20T12:10:44.961Z,101356.84
2023-01-20T12:13:24.955Z,101374.78
2023-01-20T12:15:54.732Z,101377.84
2023-01-20T12:18:27.315Z,101372.06
2023-01-20T12:21:20.222Z,101376.53
2023-01-20T12:24:02.870Z,101379.84
2023-01-20T12:26:29.636Z,101381.31
2023-01-20T12:29:03.352Z,101382.88
2023-01-20T12:31:30.233Z,101386.41
2023-01-20T12:34:04.098Z,101382.56
2023-01-20T12:36:52.042Z,101387.41
2023-01-20T12:39:50.699Z,101393.78
2023-01-20T12:42:26.096Z,101397.06
2023-01-20T12:45:20.022Z,101401.91
2023-01-20T12:48:25.723Z,101408.22
2023-01-20T12:51:05.753Z,101401.84
2023-01-20T12:53:56.270Z,101412.78
2023-01-20T12:56:41.192Z,101405.94
2023-01-20T12:59:36.733Z,101416.34
2023-01-20T13:02:10.403Z,101416.19
2023-01-20T13:04:36.814Z,101416.19
2023-01-20T13:07:15.411Z,101424.63
2023-01-20T13:10:00.453Z,101420.63
2023-01-20T13:12:36.536Z,101438.41
2023-01-20T13:15:22.618Z,101434.78
2023-01-20T13:18:08.304Z,101439.66
2023-01-20T13:20:38.809Z,101446.03
2023-01-20T13:23:05.624Z,101439.75
2023-01-20T13:25:34.231Z,101448.06
2023-01-20T13:28:00.800Z,101450.63
2023-01-20T13:30:51.306Z,101451.25
2023-01-20T13:33:33.693Z,101453.38
2023-01-20T13:36:01.927Z,101470.03
2023-01-20T13:38:35.955Z,101472.69
2023-01-20T13:41:06.013Z,101473.59
2023-01-20T13:43:33.492Z,101475.94
2023-01-20T13:46:03.010Z,101484.38
2023-01-20T13:48:30.897Z,101500.06
2023-01-20T13:51:15.597Z,101502.72
2023-01-20T13:53:43.112Z,101512.72
2023-01-20T13:56:26.173Z,101514.16
2023-01-20T13:58:53.911Z,101519.75
2023-01-20T14:01:20.516Z,101522.47
2023-01-20T14:04:14.254Z,101527.91
2023-01-20T14:06:48.988Z,101534.03
2023-01-20T14:09:24.113Z,101543.53
2023-01-20T14:11:52.280Z,101550.00
2023-01-20T14:14:22.663Z,101550.66
2023-01-20T14:16:49.496Z,101553.56
2023-01-20T14:19:24.998Z,101558.75
2023-01-20T14:21:57.185Z,101566.03
2023-01-20T14:24:31.010Z,101570.63
2023-01-20T14:27:32.141Z,101576.38
2023-01-20T14:30:22.120Z,101585.28
2023-01-20T14:32:49.731Z,101580.09
2023-01-20T14:35:21.115Z,101586.44
2023-01-20T14:37:50.520Z,101588.59
2023-01-20T14:40:33.670Z,101591.28
2023-01-20T14:43:20.647Z,101596.91
2023-01-20T14:45:49.271Z,101607.81
2023-01-20T14:48:32.459Z,101610.78
2023-01-20T14:51:02.600Z,101614.53
2023-01-20T14:53:29.129Z,101618.13
2023-01-20T14:56:03.407Z,101619.16
2023-01-20T14:58:34.616Z,101622.66
2023-01-20T15:01:03.501Z,101627.16
2023-01-20T15:03:30.740Z,101635.22
2023-01-20T15:05:59.304Z,101639.69
2023-01-20T15:08:34.817Z,101639.13
2023-01-20T15:11:17.050Z,101639.69
2023-01-20T15:13:58.692Z,101651.19
2023-01-20T15:16:28.233Z,101662.28
2023-01-20T15:19:13.623Z,101659.88
2023-01-20T15:21:41.827Z,101665.06
2023-01-20T15:24:20.336Z,101665.28
2023-01-20T15:26:49.078Z,101672.25
2023-01-20T15:29:23.616Z,101674.88
2023-01-20T15:31:51.424Z,101680.53
2023-01-20T15:34:19.974Z,101679.00
2023-01-20T15:36:47.623Z,101688.44
2023-01-20T15:39:15.697Z,101701.03
2023-01-20T15:41:42.604Z,101705.22
2023-01-20T15:44:09.135Z,101710.81
2023-01-20T15:46:35.890Z,101715.28
2023-01-20T15:49:02.371Z,101713.56
2023-01-20T15:51:28.855Z,101724.03
2023-01-20T15:53:55.281Z,101716.50
2023-01-20T15:56:29.469Z,101725.50
2023-01-20T15:58:57.258Z,101736.09
2023-01-20T16:01:25.942Z,101731.66
2023-01-20T16:03:54.906Z,101737.34
2023-01-20T16:06:25.341Z,101736.97
2023-01-20T16:08:51.778Z,101740.41
2023-01-20T16:11:19.283Z,101745.06
2023-01-20T16:13:46.278Z,101754.06
2023-01-20T16:16:14.769Z,101749.56
2023-01-20T16:18:41.508Z,101752.47
2023-01-20T16:21:10.861Z,101759.69
2023-01-20T16:23:37.793Z,101768.22
2023-01-20T16:26:20.413Z,101778.63
2023-01-20T16:28:46.879Z,101774.78
2023-01-20T16:31:13.681Z,101781.69
2023-01-20T16:33:40.341Z,101779.25
2023-01-20T16:36:11.056Z,101780.47
2023-01-20T16:38:37.919Z,101796.09
2023-01-20T16:41:07.202Z,101791.41
2023-01-20T16:43:33.658Z,101795.94
2023-01-20T16:46:00.228Z,101797.13
2023-01-20T16:48:26.733Z,101811.88
2023-01-20T16:50:53.273Z,101809.53
2023-01-20T16:53:20.250Z,101817.34
2023-01-20T16:55:47.783Z,101817.88
2023-01-20T16:58:15.373Z,101823.59
2023-01-20T17:00:42.120Z,101824.84
2023-01-20T17:03:08.769Z,101821.00
2023-01-20T17:05:35.599Z,101827.72
2023-01-20T17:08:02.481Z,101842.28
2023-01-20T17:10:32.234Z,101843.75
2023-01-20T17:12:59.492Z,101841.44
2023-01-20T17:15:26.513Z,101843.84
2023-01-20T17:17:56.698Z,101858.72
2023-01-20T17:20:23.593Z,101868.00
2023-01-20T17:22:51.831Z,101866.16
2023-01-20T17:25:18.391Z,101869.44
2023-01-20T17:27:47.618Z,101875.50
2023-01-20T17:30:15.475Z,101875.47
2023-01-20T17:32:49.283Z,101880.09
2023-01-20T17:35:16.971Z,101881.56
2023-01-20T17:37:45.569Z,101886.94
2023-01-20T17:40:18.053Z,101889.81
2023-01-20T17:42:48.656Z,101897.28
2023-01-20T17:45:15.448Z,101905.19
2023-01-20T17:47:42.126Z,101913.28
2023-01-20T17:50:09.121Z,101914.63
2023-01-20T17:52:35.623Z,101916.50
2023-01-20T17:55:04.229Z,101909.16
2023-01-20T17:57:32.651Z,101914.59
2023-01-20T17:59:59.186Z,101937.00
2023-01-20T18:02:25.785Z,101937.47
2023-01-20T18:04:59.579Z,101940.41
2023-01-20T18:07:26.058Z,101940.22
2023-01-20T18:09:52.755Z,101935.56
2023-01-20T18:12:21.467Z,101964.72
2023-01-20T18:14:48.509Z,101956.25
2023-01-20T18:17:15.015Z,101953.22
2023-01-20T18:19:42.787Z,101966.38
2023-01-20T18:22:10.356Z,101971.41
2023-01-20T18:24:36.903Z,101972.19
2023-01-20T18:27:03.521Z,101980.91
2023-01-20T18:29:30.181Z,101979.66
2023-01-20T18:31:58.256Z,101977.78
2023-01-20T18:34:25.152Z,101974.09
2023-01-20T18:36:51.987Z,101976.28
2023-01-20T18:39:21.516Z,101977.34
2023-01-20T18:41:48.694Z,101982.66
2023-01-20T18:44:15.635Z,101988.34
2023-01-20T18:46:42.691Z,101986.69
2023-01-20T18:49:13.209Z,101987.06
2023-01-20T18:51:40.168Z,101990.16
2023-01-20T18:54:10.705Z,101998.13
2023-01-20T18:56:37.336Z,101990.59
2023-01-20T18:59:07.478Z,101994.84
2023-01-20T19:01:36.876Z,102006.28
2023-01-20T19:04:04.438Z,102004.13
2023-01-20T19:06:34.394Z,102012.13
2023-01-20T19:09:01.497Z,102015.78
2023-01-20T19:11:31.660Z,102017.75
2023-01-20T19:13:58.966Z,102020.56
2023-01-20T19:16:36.064Z,102026.09
2023-01-20T19:19:04.734Z,102025.16
2023-01-20T19:21:33.226Z,102035.31
2023-01-20T19:24:02.978Z,102041.97
2023-01-20T19:26:29.468Z,102043.38
2023-01-20T19:29:00.634Z,102050.34
2023-01-20T19:31:31.040Z,102051.69
2023-01-20T19:33:57.982Z,102056.16
2023-01-20T19:36:24.694Z,102062.31
2023-01-20T19:38:54.120Z,102063.25
2023-01-20T19:41:23.065Z,102066.88
2023-01-20T19:43:57.393Z,102063.97
2023-01-20T19:46:26.729Z,102060.88
2023-01-20T19:48:54.095Z,102056.78
2023-01-20T19:51:20.775Z,102075.66
2023-01-20T19:53:50.238Z,102075.13
2023-01-20T19:56:18.379Z,102085.09
2023-01-20T19:58:46.023Z,102076.34
2023-01-20T20:01:17.830Z,102078.47
2023-01-20T20:03:44.529Z,102084.69
2023-01-20T20:06:32.133Z,102086.31
2023-01-20T20:09:01.269Z,102092.25
2023-01-20T20:11:28.912Z,102098.41
2023-01-20T20:13:57.405Z,102102.78
2023-01-20T20:16:25.547Z,102108.41
2023-01-20T20:18:52.780Z,102116.56
2023-01-20T20:21:19.746Z,102115.31
2023-01-20T20:23:50.662Z,102120.50
2023-01-20T20:26:17.917Z,102122.63
2023-01-20T20:28:45.118Z,102125.13
2023-01-20T20:31:12.013Z,102122.28
2023-01-20T20:33:38.702Z,102132.78
2023-01-20T20:36:07.465Z,102137.78
2023-01-20T20:38:36.686Z,102144.00
2023-01-20T20:41:04.741Z,102144.63
2023-01-20T20:43:31.248Z,102143.50
2023-01-20T20:46:01.828Z,102153.28
2023-01-20T20:48:28.847Z,102158.06
2023-01-20T20:50:55.487Z,102159.34
2023-01-20T20:53:22.675Z,102166.66
2023-01-20T20:55:53.995Z,102170.41
2023-01-20T20:58:22.434Z,102172.00
2023-01-20T21:00:50.988Z,102179.81
2023-01-20T21:03:17.529Z,102188.84
2023-01-20T21:05:49.454Z,102183.31
2023-01-20T21:08:17.675Z,102195.16
2023-01-20T21:10:44.381Z,102188.19
2023-01-20T21:13:11.247Z,102198.00
2023-01-20T21:15:38.449Z,102200.00
2023-01-20T21:18:05.909Z,102199.53
2023-01-20T21:20:33.609Z,102203.63
2023-01-20T21:23:00.827Z,102205.09
2023-01-20T21:25:27.895Z,102210.63
2023-01-20T21:27:54.550Z,102214.75
2023-01-20T21:30:21.248Z,102210.38
2023-01-20T21:32:47.752Z,102220.00
2023-01-20T21:35:14.255Z,102213.84
2023-01-20T21:37:40.778Z,102217.06
2023-01-20T21:40:07.661Z,102219.75
2023-01-20T21:42:34.124Z,102214.22
2023-01-20T21:45:00.591Z,102220.28
2023-01-20T21:47:27.084Z,102235.25
2023-01-20T21:50:12.216Z,102240.41
2023-01-20T21:52:41.496Z,102243.75
2023-01-20T21:55:16.685Z,102241.41
2023-01-20T21:57:43.274Z,102248.81
2023-01-20T22:00:10.692Z,102259.94
2023-01-20T22:02:37.436Z,102247.84
2023-01-20T22:05:04.176Z,102257.09
2023-01-20T22:07:30.695Z,102259.47
2023-01-20T22:09:58.314Z,102263.03
2023-01-20T22:12:25.037Z,102256.59
2023-01-20T22:14:53.141Z,102259.81
2023-01-20T22:17:19.653Z,102269.06
2023-01-20T22:19:46.241Z,102264.28
2023-01-20T22:22:15.335Z,102267.00
2023-01-20T22:24:42.780Z,102268.13
2023-01-20T22:27:10.207Z,102262.53
2023-01-20T22:29:36.705Z,102258.28
2023-01-20T22:32:04.207Z,102265.03
2023-01-20T22:34:31.455Z,102270.19
2023-01-20T22:37:00.409Z,102271.47
2023-01-20T22:39:27.797Z,102265.47
2023-01-20T22:41:54.235Z,102270.06
2023-01-20T22:44:20.683Z,102278.38
2023-01-20T22:46:47.202Z,102277.13
2023-01-20T22:49:14.106Z,102274.34
2023-01-20T22:51:40.787Z,102277.91
2023-01-20T22:54:10.585Z,102280.00
2023-01-20T22:56:38.131Z,102274.00
2023-01-20T22:59:04.610Z,102284.91
2023-01-20T23:01:33.588Z,102283.06
2023-01-20T23:04:02.337Z,102286.50
2023-01-20T23:06:33.085Z,102289.25
2023-01-20T23:09:06.357Z,102293.50
2023-01-20T23:11:34.014Z,102286.97
2023-01-20T23:14:00.977Z,102298.47
2023-01-20T23:16:27.818Z,102297.75
2023-01-20T23:18:54.438Z,102309.16
2023-01-20T23:21:21.798Z,102297.69
2023-01-20T23:23:54.303Z,102309.44
2023-01-20T23:26:26.434Z,102313.59
2023-01-20T23:28:53.896Z,102326.19
2023-01-20T23:31:20.743Z,102320.19
2023-01-20T23:33:47.276Z,102331.34
2023-01-20T23:36:19.339Z,102333.78
2023-01-20T23:38:45.851Z,102334.47
2023-01-20T23:41:13.319Z,102336.25
2023-01-20T23:43:40.987Z,102338.28
2023-01-20T23:46:08.290Z,102344.19
2023-01-20T23:48:35.424Z,102351.69
2023-01-20T23:51:02.700Z,102354.88
2023-01-20T23:53:30.845Z,102363.59
2023-01-20T23:56:04.102Z,102367.78
2023-01-20T23:58:30.699Z,102360.94
